Time;durP1;ratioP1;P1;durP2;ratioP2;P2;SDS_P1;SDS_P2;PMS_P1;PMS_P2;Temp;Humidity;BMP_temperature;BMP_pressure;BME280_temperature;BME280_humidity;BME280_pressure;Samples;Min_cycle;Max_cycle;Signal;HPM_P1;HPM_P2
2023/12/12 00:01:54;;;;;;;6.30;2.70;;;11.20;99.90;;;;;;5088676;28;20213;-86
2023/12/12 00:04:19;;;;;;;8.32;2.67;;;9.20;99.90;;;;;;5088215;28;20251;-85
2023/12/12 00:06:45;;;;;;;10.20;2.97;;;9.60;99.90;;;;;;5088876;28;20187;-86
2023/12/12 00:09:11;;;;;;;5.43;2.60;;;9.40;99.90;;;;;;5074687;28;20651;-86
2023/12/12 00:11:37;;;;;;;5.90;3.40;;;9.40;99.90;;;;;;5085346;28;20185;-86
2023/12/12 00:14:03;;;;;;;5.40;4.50;;;;;;;;;;5098076;28;20187;-86
2023/12/12 00:16:29;;;;;;;4.60;2.58;;;9.50;99.90;;;;;;5086885;28;20229;-86
2023/12/12 00:18:55;;;;;;;7.20;3.37;;;9.50;99.90;;;;;;5079759;28;20180;-86
2023/12/12 00:21:21;;;;;;;5.18;2.90;;;9.40;99.90;;;;;;5083384;28;20316;-87
2023/12/12 00:23:46;;;;;;;5.73;2.80;;;9.30;99.90;;;;;;5086248;28;20224;-86
2023/12/12 00:26:12;;;;;;;4.60;2.47;;;9.40;99.90;;;;;;5075521;28;20875;-86
2023/12/12 00:28:38;;;;;;;8.15;3.10;;;9.40;99.90;;;;;;5061535;28;20262;-86
2023/12/12 00:31:04;;;;;;;5.85;2.90;;;9.70;99.90;;;;;;5077768;28;20741;-87
2023/12/12 00:33:30;;;;;;;5.83;3.00;;;9.40;99.90;;;;;;5082356;28;20214;-86
2023/12/12 00:35:56;;;;;;;5.30;2.57;;;9.80;99.90;;;;;;5074850;28;20188;-86
2023/12/12 00:38:28;;;;;;;3.60;2.78;;;9.30;99.90;;;;;;5060216;28;20215;-86
2023/12/12 00:40:55;;;;;;;5.45;2.95;;;9.30;99.90;;;;;;5071268;28;20221;-86
2023/12/12 00:43:22;;;;;;;4.63;2.60;;;9.30;99.90;;;;;;5078393;28;20280;-87
2023/12/12 00:45:48;;;;;;;5.32;2.33;;;9.60;99.90;;;;;;5075676;28;20178;-86
2023/12/12 00:48:13;;;;;;;5.47;2.40;;;;;;;;;;5083135;28;20654;-86
2023/12/12 00:50:39;;;;;;;4.13;3.10;;;9.30;99.90;;;;;;5078296;28;20232;-86
2023/12/12 00:53:05;;;;;;;5.30;3.30;;;9.40;99.90;;;;;;5076238;28;20454;-86
2023/12/12 00:55:31;;;;;;;7.30;2.50;;;9.30;99.90;;;;;;5077297;28;20204;-86
2023/12/12 00:57:56;;;;;;;4.80;2.63;;;9.50;99.90;;;;;;5079217;28;20184;-85
2023/12/12 01:00:22;;;;;;;7.50;2.80;;;9.60;99.90;;;;;;5085268;28;20182;-86
2023/12/12 01:02:48;;;;;;;3.53;2.27;;;9.60;99.90;;;;;;5079571;28;20227;-87
2023/12/12 01:05:14;;;;;;;4.45;2.40;;;9.50;99.90;;;;;;5071462;28;20234;-87
2023/12/12 01:07:39;;;;;;;5.83;2.40;;;9.50;99.90;;;;;;5072929;28;20674;-87
2023/12/12 01:10:05;;;;;;;6.30;3.10;;;8.90;99.90;;;;;;5074862;28;20181;-86
2023/12/12 01:12:31;;;;;;;3.73;2.43;;;;;;;;;;5070283;28;20201;-87
2023/12/12 01:14:58;;;;;;;4.97;2.27;;;9.20;99.90;;;;;;5071006;28;20513;-86
2023/12/12 01:17:28;;;;;;;4.15;2.45;;;8.90;99.90;;;;;;5069109;28;20456;-87
2023/12/12 01:19:53;;;;;;;4.22;2.85;;;9.00;99.90;;;;;;5077642;28;20177;-86
2023/12/12 01:22:19;;;;;;;3.57;2.33;;;9.00;99.90;;;;;;5067327;28;20202;-86
2023/12/12 01:24:45;;;;;;;8.67;2.37;;;8.60;99.90;;;;;;5072453;28;20627;-87
2023/12/12 01:27:10;;;;;;;6.67;3.40;;;9.30;99.90;;;;;;5076322;28;20442;-87
2023/12/12 01:29:36;;;;;;;9.57;4.90;;;9.70;99.90;;;;;;5071084;28;20207;-86
2023/12/12 01:32:02;;;;;;;5.83;3.60;;;11.30;99.90;;;;;;5073762;28;20816;-87
2023/12/12 01:34:28;;;;;;;4.72;3.03;;;9.30;99.90;;;;;;5074492;28;20254;-87
2023/12/12 01:36:54;;;;;;;4.27;2.50;;;9.40;99.90;;;;;;5070422;28;20199;-87
2023/12/12 01:39:19;;;;;;;7.20;2.83;;;9.30;99.90;;;;;;5074831;28;20350;-87
2023/12/12 01:41:46;;;;;;;7.87;4.87;;;10.30;99.90;;;;;;5069121;28;20445;-87
2023/12/12 01:44:12;;;;;;;8.15;5.28;;;9.00;99.90;;;;;;5084851;28;20202;-86
2023/12/12 01:46:37;;;;;;;7.93;6.23;;;9.50;99.90;;;;;;5077693;28;20182;-85
2023/12/12 01:49:03;;;;;;;8.13;5.07;;;9.20;99.90;;;;;;5079698;28;20244;-86
2023/12/12 01:51:30;;;;;;;6.93;3.30;;;9.40;99.90;;;;;;5076108;28;20622;-85
2023/12/12 01:54:00;;;;;;;5.80;4.15;;;9.50;99.90;;;;;;5078125;28;20539;-86
2023/12/12 01:56:26;;;;;;;8.30;3.58;;;9.40;99.90;;;;;;5076827;28;20242;-86
2023/12/12 01:58:53;;;;;;;4.10;2.95;;;10.80;99.90;;;;;;5083749;28;20273;-86
2023/12/12 02:01:20;;;;;;;6.43;2.63;;;9.70;99.90;;;;;;5082966;28;20221;-86
2023/12/12 02:03:47;;;;;;;2.58;1.90;;;9.50;99.90;;;;;;5086064;28;20210;-86
2023/12/12 02:06:21;;;;;;;4.88;2.33;;;9.40;99.90;;;;;;5092993;28;20193;-86
2023/12/12 02:08:47;;;;;;;4.18;2.67;;;9.40;99.90;;;;;;5091937;28;20216;-87
2023/12/12 02:11:13;;;;;;;3.88;2.53;;;8.50;99.90;;;;;;5084624;28;20236;-86
2023/12/12 02:13:39;;;;;;;3.67;2.20;;;9.40;99.90;;;;;;5075737;28;20214;-86
2023/12/12 02:16:06;;;;;;;6.67;2.70;;;9.20;99.90;;;;;;5083178;28;20189;-86
2023/12/12 02:18:31;;;;;;;4.45;2.30;;;9.20;99.90;;;;;;5076428;28;20182;-86
2023/12/12 02:20:59;;;;;;;4.50;2.20;;;8.90;99.90;;;;;;5077372;28;20891;-85
2023/12/12 02:23:28;;;;;;;4.75;2.15;;;9.00;99.90;;;;;;5075641;28;20214;-86
2023/12/12 02:25:54;;;;;;;5.25;2.65;;;9.30;99.90;;;;;;5076746;28;20175;-85
2023/12/12 02:28:20;;;;;;;4.13;2.80;;;9.80;99.90;;;;;;5079890;28;20272;-86
2023/12/12 02:30:46;;;;;;;5.30;2.53;;;9.30;99.90;;;;;;5088892;28;20224;-86
2023/12/12 02:33:11;;;;;;;5.10;3.00;;;9.70;99.90;;;;;;5091801;28;20185;-86
2023/12/12 02:35:37;;;;;;;3.30;2.57;;;9.00;99.90;;;;;;5095885;28;20775;-86
2023/12/12 02:38:04;;;;;;;3.33;2.77;;;8.50;99.90;;;;;;5085158;28;20196;-86
2023/12/12 02:40:29;;;;;;;6.15;2.85;;;8.90;99.90;;;;;;5085236;28;20567;-86
2023/12/12 02:42:55;;;;;;;2.90;2.03;;;9.20;99.90;;;;;;5078937;28;20276;-86
2023/12/12 02:45:20;;;;;;;5.27;3.17;;;8.90;99.90;;;;;;5091084;28;20220;-86
2023/12/12 02:47:46;;;;;;;3.40;2.27;;;8.80;99.90;;;;;;5087601;28;20185;-86
2023/12/12 02:50:12;;;;;;;3.00;1.80;;;10.50;99.90;;;;;;5095210;28;20200;-86
2023/12/12 02:52:37;;;;;;;2.80;2.00;;;8.60;99.90;;;;;;5085757;28;20449;-87
2023/12/12 02:55:03;;;;;;;3.43;2.27;;;8.90;99.90;;;;;;5084367;28;20231;-87
2023/12/12 02:57:29;;;;;;;5.43;2.63;;;8.90;99.90;;;;;;5089350;28;20180;-87
2023/12/12 02:59:54;;;;;;;6.33;1.80;;;9.00;99.90;;;;;;5092872;28;20278;-87
2023/12/12 03:02:20;;;;;;;7.10;2.33;;;;;;;;;;5074903;28;20206;-87
2023/12/12 03:04:46;;;;;;;2.43;1.60;;;8.70;99.90;;;;;;5075763;28;20209;-86
2023/12/12 03:07:12;;;;;;;2.97;1.90;;;8.50;99.90;;;;;;5075963;28;20410;-87
2023/12/12 03:09:38;;;;;;;2.88;2.05;;;8.80;99.90;;;;;;5082440;28;20752;-87
2023/12/12 03:12:04;;;;;;;3.90;1.90;;;8.60;99.90;;;;;;5078813;28;20178;-86
2023/12/12 03:14:30;;;;;;;4.97;1.90;;;8.60;99.90;;;;;;5072637;28;20212;-87
2023/12/12 03:16:57;;;;;;;6.37;1.87;;;8.70;99.90;;;;;;5071849;28;20242;-86
2023/12/12 03:19:24;;;;;;;5.65;2.03;;;8.90;99.90;;;;;;5076945;28;20186;-87
2023/12/12 03:21:50;;;;;;;2.35;1.52;;;8.40;99.90;;;;;;5074303;28;20234;-87
2023/12/12 03:24:16;;;;;;;5.07;2.30;;;8.50;99.90;;;;;;5078466;28;20224;-85
2023/12/12 03:26:43;;;;;;;4.30;1.98;;;;;;;;;;5076746;28;20239;-86
2023/12/12 03:29:08;;;;;;;3.38;1.95;;;8.80;99.90;;;;;;5082062;28;20211;-86
2023/12/12 03:31:34;;;;;;;2.23;1.60;;;8.60;99.90;;;;;;5084180;28;20209;-86
2023/12/12 03:33:59;;;;;;;2.63;2.10;;;8.60;99.90;;;;;;5098225;28;20213;-86
2023/12/12 03:36:25;;;;;;;2.93;2.00;;;9.10;99.90;;;;;;5083547;28;20191;-86
2023/12/12 03:38:50;;;;;;;3.20;1.80;;;8.80;99.90;;;;;;5084199;28;20289;-86
2023/12/12 03:41:17;;;;;;;4.47;1.70;;;;;;;;;;5075203;28;20197;-86
2023/12/12 03:43:42;;;;;;;2.88;1.63;;;9.10;99.90;;;;;;5062875;28;20225;-86
2023/12/12 03:46:12;;;;;;;5.90;1.70;;;9.40;99.90;;;;;;5086434;28;20193;-87
2023/12/12 03:48:38;;;;;;;4.65;1.60;;;8.90;99.90;;;;;;5080785;28;20183;-86
2023/12/12 03:51:04;;;;;;;1.90;1.60;;;8.90;99.90;;;;;;5078831;28;20178;-86
2023/12/12 03:53:31;;;;;;;4.30;1.80;;;9.00;99.90;;;;;;5081066;28;20250;-86
2023/12/12 03:55:56;;;;;;;3.97;1.75;;;8.80;99.90;;;;;;5088263;28;20436;-86
2023/12/12 03:58:22;;;;;;;4.40;2.50;;;8.80;99.90;;;;;;5083901;28;20180;-86
2023/12/12 04:00:47;;;;;;;2.27;1.53;;;9.00;99.90;;;;;;5083930;28;20648;-86
2023/12/12 04:03:13;;;;;;;2.10;1.70;;;;;;;;;;5079818;28;20228;-87
2023/12/12 04:05:39;;;;;;;2.80;1.50;;;9.00;99.90;;;;;;5083513;28;20166;-86
2023/12/12 04:08:04;;;;;;;2.13;1.70;;;9.20;99.90;;;;;;5095989;28;20511;-86
2023/12/12 04:10:30;;;;;;;3.03;1.70;;;8.90;99.90;;;;;;5093079;28;20184;-86
2023/12/12 04:12:56;;;;;;;2.27;1.73;;;8.90;99.90;;;;;;5086050;28;20190;-86
2023/12/12 04:15:22;;;;;;;4.60;1.70;;;8.70;99.90;;;;;;5083365;28;20205;-86
2023/12/12 04:17:47;;;;;;;5.10;2.20;;;9.00;99.90;;;;;;5085313;28;20180;-87
2023/12/12 04:20:13;;;;;;;4.47;2.20;;;8.40;99.90;;;;;;5078731;28;20261;-87
2023/12/12 04:22:38;;;;;;;4.60;1.57;;;11.20;99.90;;;;;;5081002;28;20225;-86
2023/12/12 04:25:05;;;;;;;2.70;1.97;;;8.60;99.90;;;;;;5079465;28;20204;-86
2023/12/12 04:27:31;;;;;;;4.03;2.17;;;9.00;99.90;;;;;;5081662;28;20188;-87
2023/12/12 04:29:57;;;;;;;2.90;1.70;;;8.80;99.90;;;;;;5062274;28;20190;-86
2023/12/12 04:32:23;;;;;;;3.00;1.80;;;8.50;99.90;;;;;;5082710;28;20527;-86
2023/12/12 04:34:48;;;;;;;2.80;2.07;;;8.30;99.90;;;;;;5082387;28;20236;-86
2023/12/12 04:37:14;;;;;;;1.87;1.27;;;8.30;99.90;;;;;;5082720;28;20205;-87
2023/12/12 04:39:40;;;;;;;2.00;1.50;;;8.40;99.90;;;;;;5086362;28;20443;-86
2023/12/12 04:42:06;;;;;;;2.40;1.60;;;8.30;99.90;;;;;;5079608;28;20179;-86
2023/12/12 04:44:31;;;;;;;2.40;1.60;;;8.50;99.90;;;;;;5079209;28;20491;-87
2023/12/12 04:46:57;;;;;;;1.80;1.60;;;7.80;99.90;;;;;;5074837;28;20954;-87
2023/12/12 04:49:22;;;;;;;2.70;1.80;;;8.60;99.90;;;;;;5075552;28;20184;-87
2023/12/12 04:51:48;;;;;;;3.97;1.47;;;8.30;99.90;;;;;;5080645;28;20181;-87
2023/12/12 04:54:13;;;;;;;3.70;1.60;;;8.30;99.90;;;;;;5073801;28;20209;-87
2023/12/12 04:56:39;;;;;;;3.23;1.50;;;8.80;99.90;;;;;;5069399;28;20189;-86
2023/12/12 04:59:04;;;;;;;2.90;1.30;;;9.30;99.90;;;;;;5069095;28;20211;-85
2023/12/12 05:01:31;;;;;;;1.90;1.50;;;8.80;99.90;;;;;;5063575;28;20196;-86
2023/12/12 05:03:56;;;;;;;4.03;1.45;;;9.70;99.90;;;;;;5081525;28;20236;-87
2023/12/12 05:06:22;;;;;;;4.10;2.10;;;8.60;99.90;;;;;;5082155;28;20728;-87
2023/12/12 05:08:48;;;;;;;2.77;1.70;;;8.90;99.90;;;;;;5071916;28;20214;-87
2023/12/12 05:11:14;;;;;;;4.70;1.80;;;8.20;99.90;;;;;;5082672;28;20273;-86
2023/12/12 05:13:40;;;;;;;5.30;2.75;;;8.60;99.90;;;;;;5079605;28;20216;-87
2023/12/12 05:16:09;;;;;;;5.53;2.20;;;8.60;99.90;;;;;;5082129;28;20180;-86
2023/12/12 05:18:36;;;;;;;5.60;1.70;;;;;;;;;;5079564;28;20185;-86
2023/12/12 05:21:01;;;;;;;1.85;1.40;;;8.40;99.90;;;;;;5081359;28;20225;-87
2023/12/12 05:23:27;;;;;;;2.47;2.27;;;8.60;99.90;;;;;;5074774;28;20743;-87
2023/12/12 05:25:53;;;;;;;8.40;1.97;;;8.90;99.90;;;;;;5072797;28;20531;-86
2023/12/12 05:28:19;;;;;;;5.43;2.60;;;8.60;99.90;;;;;;5073261;28;20176;-87
2023/12/12 05:30:44;;;;;;;4.17;2.03;;;8.40;99.90;;;;;;5082028;28;20173;-86
2023/12/12 05:33:10;;;;;;;2.00;1.80;;;;;;;;;;5091028;28;20444;-86
2023/12/12 05:35:36;;;;;;;4.90;2.20;;;;;;;;;;5076299;28;20181;-87
2023/12/12 05:38:06;;;;;;;4.63;2.63;;;8.70;99.90;;;;;;5068415;28;20457;-87
2023/12/12 05:40:32;;;;;;;3.33;1.75;;;9.90;99.90;;;;;;5076596;28;20185;-86
2023/12/12 05:42:58;;;;;;;3.10;1.80;;;8.90;99.90;;;;;;5075013;28;20208;-86
2023/12/12 05:45:24;;;;;;;3.45;2.25;;;8.80;99.90;;;;;;5081237;28;20524;-87
2023/12/12 05:47:50;;;;;;;2.40;1.83;;;9.10;99.90;;;;;;5076859;28;20206;-86
2023/12/12 05:50:16;;;;;;;2.78;1.83;;;11.00;99.90;;;;;;5079079;28;20219;-87
2023/12/12 05:52:42;;;;;;;2.27;1.70;;;8.70;99.90;;;;;;5082147;28;20178;-87
2023/12/12 05:55:08;;;;;;;2.63;1.67;;;8.90;99.90;;;;;;5079507;28;20752;-86
2023/12/12 05:57:34;;;;;;;4.05;3.00;;;10.40;99.90;;;;;;5078415;28;20181;-86
2023/12/12 06:00:00;;;;;;;3.73;1.80;;;;;;;;;;5091436;28;20186;-86
2023/12/12 06:02:26;;;;;;;6.80;2.40;;;9.00;99.90;;;;;;5080772;28;20477;-85
2023/12/12 06:04:53;;;;;;;4.03;2.70;;;9.10;99.90;;;;;;5083727;28;20211;-85
2023/12/12 06:07:18;;;;;;;3.17;2.67;;;9.40;99.90;;;;;;5089498;28;20268;-87
2023/12/12 06:09:44;;;;;;;2.40;2.10;;;8.70;99.90;;;;;;5080468;28;20182;-86
2023/12/12 06:12:10;;;;;;;3.30;2.40;;;8.80;99.90;;;;;;5074120;28;20280;-87
2023/12/12 06:14:35;;;;;;;2.33;1.90;;;8.80;99.90;;;;;;5065072;28;20224;-87
2023/12/12 06:17:02;;;;;;;4.23;2.00;;;9.40;99.90;;;;;;5088175;28;20188;-86
2023/12/12 06:19:29;;;;;;;2.25;1.98;;;9.40;99.90;;;;;;5080369;28;20185;-87
2023/12/12 06:21:54;;;;;;;4.90;2.95;;;9.10;99.90;;;;;;5081990;28;20174;-87
2023/12/12 06:24:20;;;;;;;4.63;2.50;;;;;;;;;;5075220;28;20240;-87
2023/12/12 06:26:46;;;;;;;5.10;2.90;;;9.00;99.90;;;;;;5079806;28;20179;-87
2023/12/12 06:29:13;;;;;;;4.03;1.70;;;9.10;99.90;;;;;;5074213;28;20256;-86
2023/12/12 06:31:39;;;;;;;2.80;2.20;;;9.00;99.90;;;;;;5079062;28;20181;-87
2023/12/12 06:34:05;;;;;;;4.45;2.70;;;10.90;99.90;;;;;;5080230;28;20254;-86
2023/12/12 06:36:31;;;;;;;3.38;2.35;;;9.20;99.90;;;;;;5084706;28;20665;-86
2023/12/12 06:38:56;;;;;;;3.33;2.73;;;9.00;99.90;;;;;;5087956;28;20185;-87
2023/12/12 06:41:22;;;;;;;4.10;2.80;;;11.50;99.90;;;;;;5081634;28;20205;-87
2023/12/12 06:43:48;;;;;;;6.35;2.65;;;9.00;99.90;;;;;;5077804;28;20220;-87
2023/12/12 06:46:17;;;;;;;3.53;2.90;;;9.20;99.90;;;;;;5081453;28;20191;-86
2023/12/12 06:48:42;;;;;;;3.85;2.72;;;9.30;99.90;;;;;;5095918;28;20187;-86
2023/12/12 06:51:12;;;;;;;4.70;3.10;;;;;;;;;;5076908;28;20257;-87
2023/12/12 06:53:38;;;;;;;4.32;2.33;;;9.60;99.90;;;;;;5078177;28;20251;-86
2023/12/12 06:56:05;;;;;;;2.60;2.20;;;;;;;;;;5082231;28;20285;-86
2023/12/12 06:58:31;;;;;;;4.72;2.50;;;;;;;;;;5087992;28;20431;-86
2023/12/12 07:00:58;;;;;;;3.85;3.20;;;9.60;99.90;;;;;;5089461;28;20375;-87
2023/12/12 07:03:24;;;;;;;2.80;1.90;;;;;;;;;;5098721;28;20701;-86
2023/12/12 07:05:52;;;;;;;5.47;2.20;;;9.50;99.90;;;;;;5093395;28;20444;-87
2023/12/12 07:08:19;;;;;;;6.57;2.05;;;;;;;;;;5089206;28;20440;-86
2023/12/12 07:10:45;;;;;;;2.30;2.10;;;9.70;99.90;;;;;;5084462;28;20195;-86
2023/12/12 07:13:12;;;;;;;2.47;1.92;;;;;;;;;;5082646;28;20197;-86
2023/12/12 07:15:38;;;;;;;3.10;2.55;;;9.90;99.90;;;;;;5082951;28;20183;-86
2023/12/12 07:18:07;;;;;;;3.17;2.83;;;9.80;99.90;;;;;;5091412;28;20206;-86
2023/12/12 07:20:33;;;;;;;8.40;2.03;;;9.80;99.90;;;;;;5087417;28;20176;-85
2023/12/12 07:22:58;;;;;;;4.97;2.57;;;11.50;99.90;;;;;;5087332;28;20210;-86
2023/12/12 07:25:24;;;;;;;2.63;1.80;;;10.10;99.90;;;;;;5082397;28;20215;-86
2023/12/12 07:27:50;;;;;;;12.37;5.30;;;11.10;99.90;;;;;;5078730;28;20206;-86
2023/12/12 07:30:16;;;;;;;8.77;2.97;;;9.70;99.90;;;;;;5086904;28;20194;-87
2023/12/12 07:32:43;;;;;;;4.33;2.00;;;;;;;;;;5086351;28;20306;-87
2023/12/12 07:35:09;;;;;;;5.05;2.58;;;9.80;99.90;;;;;;5077667;28;20200;-86
2023/12/12 07:37:36;;;;;;;3.00;2.60;;;9.70;99.90;;;;;;5080824;28;21953;-87
2023/12/12 07:40:04;;;;;;;2.38;2.17;;;;;;;;;;5080246;28;20190;-86
2023/12/12 07:42:30;;;;;;;5.07;3.08;;;9.70;99.90;;;;;;5078315;28;20202;-87
2023/12/12 07:44:56;;;;;;;3.60;2.70;;;9.60;99.90;;;;;;5078033;28;20577;-87
2023/12/12 07:47:22;;;;;;;3.50;2.97;;;;;;;;;;5074745;28;20490;-86
2023/12/12 07:49:47;;;;;;;3.60;2.50;;;10.10;99.90;;;;;;5090625;28;20174;-85
2023/12/12 07:52:14;;;;;;;2.87;2.53;;;10.00;99.90;;;;;;5078023;28;20213;-86
2023/12/12 07:54:43;;;;;;;5.80;3.25;;;10.00;99.90;;;;;;5061478;28;20215;-86
2023/12/12 07:57:09;;;;;;;5.63;3.70;;;10.40;99.90;;;;;;5087919;28;20179;-85
2023/12/12 07:59:36;;;;;;;3.13;2.63;;;9.90;99.90;;;;;;5078384;28;20205;-87
2023/12/12 08:02:02;;;;;;;5.97;2.40;;;9.70;99.90;;;;;;5080624;28;20227;-86
2023/12/12 08:04:28;;;;;;;3.80;2.77;;;10.20;99.90;;;;;;5086060;28;20206;-86
2023/12/12 08:06:53;;;;;;;2.97;2.67;;;9.90;99.90;;;;;;5082330;28;20183;-85
2023/12/12 08:09:20;;;;;;;3.77;2.43;;;11.70;99.90;;;;;;5069689;28;20190;-87
2023/12/12 08:11:46;;;;;;;6.47;2.83;;;10.00;99.90;;;;;;5063627;28;20191;-86
2023/12/12 08:14:12;;;;;;;4.00;2.87;;;;;;;;;;5076081;28;20221;-86
2023/12/12 08:16:38;;;;;;;3.38;2.00;;;;;;;;;;5088105;28;20187;-86
2023/12/12 08:19:03;;;;;;;4.80;2.70;;;10.10;99.90;;;;;;5073901;28;20221;-86
2023/12/12 08:21:30;;;;;;;8.23;2.70;;;10.20;99.90;;;;;;5076535;28;20437;-86
2023/12/12 08:23:56;;;;;;;3.35;2.38;;;10.30;99.90;;;;;;5062656;28;20319;-88
2023/12/12 08:26:22;;;;;;;4.53;3.53;;;10.60;99.90;;;;;;5077999;28;20208;-87
2023/12/12 08:28:49;;;;;;;5.10;3.33;;;;;;;;;;5083794;28;20183;-86
2023/12/12 08:31:14;;;;;;;7.60;4.47;;;10.40;99.90;;;;;;5073826;28;20183;-87
2023/12/12 08:33:42;;;;;;;4.90;3.30;;;;;;;;;;5082000;28;20215;-86
2023/12/12 08:36:08;;;;;;;6.35;3.47;;;10.50;99.90;;;;;;5076636;28;20550;-87
2023/12/12 08:38:37;;;;;;;6.00;4.50;;;10.30;99.90;;;;;;5086964;28;20214;-86
2023/12/12 08:41:04;;;;;;;7.32;3.58;;;9.90;99.90;;;;;;5084665;28;20197;-85
2023/12/12 08:43:30;;;;;;;3.58;3.03;;;10.40;99.90;;;;;;5080814;28;20234;-86
2023/12/12 08:45:56;;;;;;;3.63;3.10;;;10.70;99.90;;;;;;5077438;28;20183;-86
2023/12/12 08:48:23;;;;;;;6.47;3.65;;;10.50;99.90;;;;;;5080256;28;20196;-86
2023/12/12 08:50:50;;;;;;;4.85;3.30;;;10.40;99.90;;;;;;5086570;28;20168;-85
2023/12/12 08:53:16;;;;;;;4.75;3.15;;;10.60;99.90;;;;;;5091444;28;20188;-86
2023/12/12 08:55:42;;;;;;;5.00;3.53;;;;;;;;;;5073040;28;20195;-86
2023/12/12 08:58:08;;;;;;;4.53;2.47;;;10.60;99.90;;;;;;5087488;28;20913;-86
2023/12/12 09:00:33;;;;;;;3.10;2.80;;;10.20;99.90;;;;;;5084937;28;20477;-86
2023/12/12 09:02:59;;;;;;;9.90;3.00;;;11.80;99.90;;;;;;5082089;28;20470;-86
2023/12/12 09:05:25;;;;;;;3.53;3.20;;;;;;;;;;5083539;28;20687;-85
2023/12/12 09:07:51;;;;;;;3.85;2.70;;;;;;;;;;5081764;28;20190;-86
2023/12/12 09:10:18;;;;;;;3.88;2.90;;;10.70;99.90;;;;;;5088565;28;20177;-86
2023/12/12 09:12:43;;;;;;;3.45;2.65;;;10.70;99.90;;;;;;5075774;28;20200;-86
2023/12/12 09:15:10;;;;;;;4.97;2.80;;;10.40;99.90;;;;;;5083005;28;20241;-87
2023/12/12 09:17:36;;;;;;;2.83;2.40;;;10.50;99.90;;;;;;5079858;28;20185;-86
2023/12/12 09:20:02;;;;;;;3.90;2.50;;;;;;;;;;5087319;28;20657;-86
2023/12/12 09:22:28;;;;;;;4.15;2.88;;;10.80;99.90;;;;;;5089418;28;20842;-87
2023/12/12 09:24:54;;;;;;;3.73;3.40;;;10.30;99.90;;;;;;5087619;28;20211;-86
2023/12/12 09:27:21;;;;;;;7.05;3.13;;;10.70;99.90;;;;;;5091070;28;20179;-86
2023/12/12 09:29:51;;;;;;;6.25;2.95;;;10.70;99.90;;;;;;5072470;28;20200;-86
2023/12/12 09:32:16;;;;;;;3.55;2.30;;;10.50;99.90;;;;;;5091269;28;20240;-86
2023/12/12 09:34:42;;;;;;;4.57;2.57;;;;;;;;;;5095000;28;20271;-86
2023/12/12 09:37:08;;;;;;;3.67;2.90;;;10.90;99.90;;;;;;5087086;28;20196;-85
2023/12/12 09:39:33;;;;;;;2.13;1.90;;;10.70;99.90;;;;;;5092758;28;20439;-86
2023/12/12 09:42:00;;;;;;;7.30;5.00;;;10.60;99.90;;;;;;5088287;28;20176;-87
2023/12/12 09:44:31;;;;;;;4.22;2.85;;;10.80;99.90;;;;;;5099125;28;20200;-86
2023/12/12 09:46:57;;;;;;;3.38;2.90;;;10.90;99.90;;;;;;5100451;28;20259;-86
2023/12/12 09:49:24;;;;;;;4.43;2.55;;;10.20;99.90;;;;;;5088928;28;20214;-87
2023/12/12 09:51:52;;;;;;;6.47;3.33;;;10.50;99.90;;;;;;5078660;28;20202;-86
2023/12/12 09:54:18;;;;;;;2.75;2.20;;;10.50;99.90;;;;;;5081377;28;20255;-86
2023/12/12 09:56:46;;;;;;;3.55;2.65;;;12.20;99.90;;;;;;5079463;28;20186;-87
2023/12/12 09:59:12;;;;;;;5.25;2.78;;;10.90;99.90;;;;;;5077762;28;20214;-86
2023/12/12 10:01:41;;;;;;;3.40;3.10;;;10.60;99.90;;;;;;5082853;28;20188;-87
2023/12/12 10:04:08;;;;;;;4.65;2.95;;;10.70;99.90;;;;;;5077565;28;20221;-86
2023/12/12 10:06:41;;;;;;;2.85;2.50;;;11.80;99.90;;;;;;5082320;28;20180;-88
2023/12/12 10:09:07;;;;;;;4.38;2.60;;;11.60;99.90;;;;;;5080180;28;20210;-86
2023/12/12 10:11:33;;;;;;;5.00;2.60;;;10.30;99.90;;;;;;5076010;28;20188;-86
2023/12/12 10:14:00;;;;;;;4.07;3.03;;;13.40;99.90;;;;;;5065096;28;20232;-89
2023/12/12 10:16:30;;;;;;;2.90;2.70;;;10.50;99.90;;;;;;5086638;28;20441;-86
2023/12/12 10:18:58;;;;;;;3.83;2.90;;;10.40;99.90;;;;;;5079772;28;20188;-86
2023/12/12 10:21:26;;;;;;;2.83;2.38;;;11.20;99.90;;;;;;5079321;28;20336;-86
2023/12/12 10:23:53;;;;;;;4.25;2.80;;;10.60;99.90;;;;;;5082845;28;20217;-86
2023/12/12 10:26:29;;;;;;;3.20;2.90;;;11.00;99.90;;;;;;5075921;28;20192;-86
2023/12/12 10:28:58;;;;;;;3.10;2.40;;;12.70;99.90;;;;;;5082381;28;20187;-87
2023/12/12 10:31:26;;;;;;;4.45;2.67;;;10.40;99.90;;;;;;5082304;28;20188;-86
2023/12/12 10:33:53;;;;;;;4.35;2.50;;;11.50;99.90;;;;;;5081286;28;20211;-87
2023/12/12 10:36:21;;;;;;;7.38;2.90;;;10.50;99.90;;;;;;5079888;28;20192;-87
2023/12/12 10:38:47;;;;;;;3.40;3.10;;;10.90;99.90;;;;;;5086314;28;20199;-87
2023/12/12 10:41:14;;;;;;;4.93;3.27;;;11.10;99.90;;;;;;5072275;28;20194;-87
2023/12/12 10:43:41;;;;;;;2.63;2.42;;;10.90;99.90;;;;;;5080451;28;20233;-85
2023/12/12 10:46:14;;;;;;;4.22;3.00;;;10.30;99.90;;;;;;5084556;28;20181;-88
2023/12/12 10:48:48;;;;;;;2.03;1.73;;;10.30;99.90;;;;;;5089057;28;20181;-87
2023/12/12 10:51:17;;;;;;;1.88;1.50;;;10.40;99.90;;;;;;5082079;28;20198;-86
2023/12/12 10:53:44;;;;;;;3.08;2.17;;;10.60;99.90;;;;;;5089387;28;20264;-87
2023/12/12 10:56:12;;;;;;;3.10;2.42;;;10.20;99.90;;;;;;5079182;28;20665;-86
2023/12/12 10:58:39;;;;;;;6.93;1.70;;;12.20;99.90;;;;;;5090057;28;20267;-87
2023/12/12 11:01:09;;;;;;;2.13;1.45;;;10.30;99.90;;;;;;5077983;28;20193;-87
2023/12/12 11:03:36;;;;;;;2.65;2.08;;;10.50;99.90;;;;;;5088885;28;20213;-86
2023/12/12 11:06:02;;;;;;;1.60;1.50;;;10.10;99.90;;;;;;5079412;28;20183;-86
2023/12/12 11:08:28;;;;;;;2.55;1.58;;;;;;;;;;5082929;28;20193;-85
2023/12/12 11:10:55;;;;;;;1.73;1.58;;;;;;;;;;5069261;28;20185;-87
2023/12/12 11:13:27;;;;;;;1.75;1.52;;;10.40;99.90;;;;;;5083156;28;20195;-87
2023/12/12 11:15:56;;;;;;;2.40;1.30;;;9.80;99.90;;;;;;5073813;28;20716;-86
2023/12/12 11:18:21;;;;;;;1.48;1.38;;;10.40;99.90;;;;;;5078920;28;20630;-86
2023/12/12 11:20:47;;;;;;;2.03;1.37;;;10.50;99.90;;;;;;5069950;28;20179;-87
2023/12/12 11:23:40;;;;;;;1.87;1.40;;;10.70;99.90;;;;;;5084756;28;20240;-86
2023/12/12 11:26:06;;;;;;;3.15;1.67;;;10.90;99.90;;;;;;5081913;28;20264;-86
2023/12/12 11:28:35;;;;;;;2.88;1.25;;;12.00;99.90;;;;;;5078713;28;20266;-87
2023/12/12 11:31:01;;;;;;;1.40;1.08;;;10.80;99.90;;;;;;5079348;28;20183;-86
2023/12/12 11:33:28;;;;;;;1.57;1.47;;;11.00;99.90;;;;;;5085239;28;20608;-87
2023/12/12 11:35:53;;;;;;;1.25;1.15;;;10.80;99.90;;;;;;5081851;28;20188;-87
2023/12/12 11:38:28;;;;;;;2.13;1.47;;;11.20;99.90;;;;;;5082789;28;20201;-86
2023/12/12 11:41:16;;;;;;;1.85;1.40;;;10.70;99.90;;;;;;5087316;28;20196;-86
2023/12/12 11:43:42;;;;;;;1.60;1.50;;;11.30;99.90;;;;;;5086621;28;20216;-86
2023/12/12 11:46:23;;;;;;;1.70;1.47;;;11.40;99.90;;;;;;5095323;28;20263;-86
2023/12/12 11:48:50;;;;;;;3.10;1.45;;;13.60;99.90;;;;;;5080039;28;20187;-87
2023/12/12 11:51:34;;;;;;;3.15;1.90;;;11.30;99.90;;;;;;5079653;28;20184;-87
2023/12/12 11:54:06;;;;;;;3.40;1.67;;;11.60;99.90;;;;;;5079786;28;20273;-88
2023/12/12 11:56:32;;;;;;;2.13;1.50;;;12.00;99.90;;;;;;5070750;28;20197;-87
2023/12/12 11:59:00;;;;;;;2.13;1.50;;;11.70;99.90;;;;;;5080119;28;20193;-86
2023/12/12 12:01:26;;;;;;;2.03;1.75;;;11.60;99.90;;;;;;5068167;28;20411;-85
2023/12/12 12:03:52;;;;;;;3.58;2.10;;;11.90;99.90;;;;;;5080425;28;20228;-86
2023/12/12 12:06:18;;;;;;;2.00;1.67;;;11.10;99.90;;;;;;5079919;28;20647;-87
2023/12/12 12:08:44;;;;;;;4.10;2.10;;;10.90;99.90;;;;;;5090904;28;20203;-85
2023/12/12 12:11:11;;;;;;;6.97;3.05;;;;;;;;;;5081383;28;20440;-85
2023/12/12 12:13:40;;;;;;;2.30;2.00;;;11.60;99.90;;;;;;5091778;28;20249;-85
2023/12/12 12:16:07;;;;;;;2.28;1.77;;;11.60;99.90;;;;;;5078421;28;20248;-86
2023/12/12 12:18:33;;;;;;;6.38;3.45;;;12.80;99.90;;;;;;5088875;28;20185;-86
2023/12/12 12:20:59;;;;;;;3.27;1.87;;;12.10;99.90;;;;;;5079571;28;20204;-85
2023/12/12 12:23:25;;;;;;;1.67;1.58;;;11.60;99.90;;;;;;5087468;28;20232;-86
2023/12/12 12:25:50;;;;;;;4.53;2.13;;;11.40;99.90;;;;;;5082191;28;20231;-86
2023/12/12 12:28:16;;;;;;;2.10;1.73;;;12.30;99.90;;;;;;5082106;28;20189;-85
2023/12/12 12:30:46;;;;;;;1.87;1.77;;;11.70;99.90;;;;;;5087979;28;20183;-86
2023/12/12 12:33:13;;;;;;;2.17;1.92;;;11.90;99.90;;;;;;5088547;28;20184;-87
2023/12/12 12:35:50;;;;;;;2.90;1.70;;;11.90;99.90;;;;;;5079886;28;20181;-85
2023/12/12 12:38:27;;;;;;;3.70;2.15;;;12.20;99.90;;;;;;5080252;28;20200;-86
2023/12/12 12:40:54;;;;;;;4.18;1.90;;;11.70;99.90;;;;;;5083991;28;20191;-85
2023/12/12 12:43:22;;;;;;;2.10;1.70;;;12.30;99.90;;;;;;5071679;28;20240;-86
2023/12/12 12:45:49;;;;;;;1.20;1.10;;;12.10;99.90;;;;;;5080513;28;20189;-86
2023/12/12 12:48:16;;;;;;;1.52;1.42;;;14.00;99.90;;;;;;5079317;28;20184;-86
2023/12/12 12:50:44;;;;;;;2.33;1.60;;;11.40;99.90;;;;;;5062096;28;20200;-85
2023/12/12 12:53:10;;;;;;;3.38;2.10;;;11.80;99.90;;;;;;5073433;28;20208;-85
2023/12/12 12:55:36;;;;;;;5.80;5.10;;;11.90;99.90;;;;;;5090475;28;20189;-85
2023/12/12 12:58:02;;;;;;;2.50;2.25;;;12.70;99.90;;;;;;5079162;28;20189;-86
2023/12/12 13:00:29;;;;;;;2.23;2.03;;;12.00;99.90;;;;;;5071007;28;20224;-86